sensor_id;sensor_type;location;lat;lon;timestamp;pressure;altitude;pressure_sealevel;temperature;humidity
73063;BME280;61230;46.328;19.972;2024-02-21T00:02:06;101326.50;;;7.71;100.00
73063;BME280;61230;46.328;19.972;2024-02-21T00:04:34;101322.63;;;7.77;100.00
73063;BME280;61230;46.328;19.972;2024-02-21T00:07:03;101334.69;;;7.79;100.00
73063;BME280;61230;46.328;19.972;2024-02-21T00:09:31;101258.19;;;7.35;100.00
73063;BME280;61230;46.328;19.972;2024-02-21T00:11:59;101331.03;;;7.82;100.00
73063;BME280;61230;46.328;19.972;2024-02-21T00:14:27;101329.13;;;7.84;100.00
73063;BME280;61230;46.328;19.972;2024-02-21T00:16:54;101331.56;;;7.87;100.00
73063;BME280;61230;46.328;19.972;2024-02-21T00:19:22;101331.03;;;7.82;100.00
73063;BME280;61230;46.328;19.972;2024-02-21T00:21:50;101320.53;;;7.82;100.00
73063;BME280;61230;46.328;19.972;2024-02-21T00:24:17;101326.84;;;7.79;100.00
73063;BME280;61230;46.328;19.972;2024-02-21T00:26:45;101324.59;;;7.73;100.00
73063;BME280;61230;46.328;19.972;2024-02-21T00:29:13;101292.91;;;7.51;100.00
73063;BME280;61230;46.328;19.972;2024-02-21T00:31:41;101314.53;;;7.67;100.00
73063;BME280;61230;46.328;19.972;2024-02-21T00:34:09;101320.63;;;7.68;100.00
73063;BME280;61230;46.328;19.972;2024-02-21T00:36:38;101318.19;;;7.65;100.00
73063;BME280;61230;46.328;19.972;2024-02-21T00:39:05;101325.19;;;7.64;100.00
73063;BME280;61230;46.328;19.972;2024-02-21T00:41:34;101314.19;;;7.59;100.00
73063;BME280;61230;46.328;19.972;2024-02-21T00:44:01;101315.97;;;7.59;100.00
73063;BME280;61230;46.328;19.972;2024-02-21T00:46:29;101314.13;;;7.46;100.00
73063;BME280;61230;46.328;19.972;2024-02-21T00:48:57;101313.31;;;7.46;100.00
73063;BME280;61230;46.328;19.972;2024-02-21T00:51:24;101268.16;;;7.16;100.00
73063;BME280;61230;46.328;19.972;2024-02-21T00:53:52;101321.75;;;7.37;100.00
73063;BME280;61230;46.328;19.972;2024-02-21T00:56:20;101324.94;;;7.28;100.00
73063;BME280;61230;46.328;19.972;2024-02-21T00:58:47;101314.87;;;7.22;100.00
73063;BME280;61230;46.328;19.972;2024-02-21T01:01:21;101312.44;;;7.19;100.00
73063;BME280;61230;46.328;19.972;2024-02-21T01:03:51;101310.12;;;7.14;100.00
73063;BME280;61230;46.328;19.972;2024-02-21T01:06:21;101261.59;;;6.82;100.00
73063;BME280;61230;46.328;19.972;2024-02-21T01:08:48;101239.22;;;6.64;100.00
73063;BME280;61230;46.328;19.972;2024-02-21T01:11:17;101306.12;;;7.09;100.00
73063;BME280;61230;46.328;19.972;2024-02-21T01:13:44;101305.16;;;7.10;100.00
73063;BME280;61230;46.328;19.972;2024-02-21T01:16:12;101302.97;;;7.04;100.00
73063;BME280;61230;46.328;19.972;2024-02-21T01:18:40;101305.00;;;6.99;100.00
73063;BME280;61230;46.328;19.972;2024-02-21T01:21:08;101285.09;;;6.96;100.00
73063;BME280;61230;46.328;19.972;2024-02-21T01:23:37;101300.44;;;7.02;100.00
73063;BME280;61230;46.328;19.972;2024-02-21T01:26:05;101302.75;;;7.07;100.00
73063;BME280;61230;46.328;19.972;2024-02-21T01:28:35;101251.50;;;6.76;100.00
73063;BME280;61230;46.328;19.972;2024-02-21T01:31:04;101291.84;;;7.00;100.00
73063;BME280;61230;46.328;19.972;2024-02-21T01:33:32;101287.34;;;7.02;100.00
73063;BME280;61230;46.328;19.972;2024-02-21T01:36:02;101285.78;;;7.00;100.00
73063;BME280;61230;46.328;19.972;2024-02-21T01:38:31;101288.28;;;7.01;100.00
73063;BME280;61230;46.328;19.972;2024-02-21T01:41:00;101292.69;;;7.01;100.00
73063;BME280;61230;46.328;19.972;2024-02-21T01:43:27;101271.94;;;6.98;100.00
73063;BME280;61230;46.328;19.972;2024-02-21T01:45:56;101276.34;;;6.97;100.00
73063;BME280;61230;46.328;19.972;2024-02-21T01:48:25;101229.38;;;6.67;100.00
73063;BME280;61230;46.328;19.972;2024-02-21T01:50:54;101272.03;;;6.96;100.00
73063;BME280;61230;46.328;19.972;2024-02-21T01:53:30;101229.19;;;6.70;100.00
73063;BME280;61230;46.328;19.972;2024-02-21T01:55:58;101273.25;;;6.90;100.00
73063;BME280;61230;46.328;19.972;2024-02-21T01:58:27;101267.87;;;6.79;100.00
73063;BME280;61230;46.328;19.972;2024-02-21T02:00:56;101255.34;;;6.70;100.00
73063;BME280;61230;46.328;19.972;2024-02-21T02:03:25;101218.69;;;6.44;100.00
73063;BME280;61230;46.328;19.972;2024-02-21T02:05:54;101263.87;;;6.60;100.00
73063;BME280;61230;46.328;19.972;2024-02-21T02:08:21;101261.44;;;6.57;100.00
73063;BME280;61230;46.328;19.972;2024-02-21T02:10:50;101259.75;;;6.56;100.00
73063;BME280;61230;46.328;19.972;2024-02-21T02:13:18;101256.78;;;6.48;100.00
73063;BME280;61230;46.328;19.972;2024-02-21T02:15:47;101273.59;;;6.44;100.00
73063;BME280;61230;46.328;19.972;2024-02-21T02:18:16;101265.66;;;6.31;100.00
73063;BME280;61230;46.328;19.972;2024-02-21T02:20:45;101260.34;;;6.32;100.00
73063;BME280;61230;46.328;19.972;2024-02-21T02:25:45;101265.56;;;6.32;100.00
73063;BME280;61230;46.328;19.972;2024-02-21T02:28:16;101259.50;;;6.18;100.00
73063;BME280;61230;46.328;19.972;2024-02-21T02:30:45;101263.97;;;6.30;100.00
73063;BME280;61230;46.328;19.972;2024-02-21T02:33:12;101258.84;;;6.28;100.00
73063;BME280;61230;46.328;19.972;2024-02-21T02:35:40;101261.25;;;6.31;100.00
73063;BME280;61230;46.328;19.972;2024-02-21T02:38:08;101257.63;;;6.20;100.00
73063;BME280;61230;46.328;19.972;2024-02-21T02:40:38;101262.47;;;6.26;100.00
73063;BME280;61230;46.328;19.972;2024-02-21T02:43:06;101268.72;;;6.23;100.00
73063;BME280;61230;46.328;19.972;2024-02-21T02:45:34;101269.28;;;6.14;100.00
73063;BME280;61230;46.328;19.972;2024-02-21T02:48:02;101278.34;;;6.23;100.00
73063;BME280;61230;46.328;19.972;2024-02-21T02:50:30;101266.12;;;6.23;100.00
73063;BME280;61230;46.328;19.972;2024-02-21T02:52:58;101272.56;;;6.32;100.00
73063;BME280;61230;46.328;19.972;2024-02-21T02:55:26;101279.28;;;6.36;100.00
73063;BME280;61230;46.328;19.972;2024-02-21T02:57:54;101274.44;;;6.30;100.00
73063;BME280;61230;46.328;19.972;2024-02-21T03:00:23;101282.00;;;6.34;100.00
73063;BME280;61230;46.328;19.972;2024-02-21T03:02:51;101273.41;;;6.32;100.00
73063;BME280;61230;46.328;19.972;2024-02-21T03:05:20;101233.00;;;6.10;100.00
73063;BME280;61230;46.328;19.972;2024-02-21T03:07:48;101274.03;;;6.36;100.00
73063;BME280;61230;46.328;19.972;2024-02-21T03:10:17;101288.50;;;6.42;100.00
73063;BME280;61230;46.328;19.972;2024-02-21T03:12:46;101277.59;;;6.35;100.00
73063;BME280;61230;46.328;19.972;2024-02-21T03:15:14;101287.03;;;6.37;100.00
73063;BME280;61230;46.328;19.972;2024-02-21T03:17:42;101288.06;;;6.35;100.00
73063;BME280;61230;46.328;19.972;2024-02-21T03:20:10;101262.38;;;6.27;100.00
73063;BME280;61230;46.328;19.972;2024-02-21T03:22:40;101285.34;;;6.36;100.00
73063;BME280;61230;46.328;19.972;2024-02-21T03:25:09;101287.69;;;6.41;100.00
73063;BME280;61230;46.328;19.972;2024-02-21T03:27:38;101286.19;;;6.37;100.00
73063;BME280;61230;46.328;19.972;2024-02-21T03:30:07;101240.16;;;6.06;100.00
73063;BME280;61230;46.328;19.972;2024-02-21T03:32:34;101286.47;;;6.32;100.00
73063;BME280;61230;46.328;19.972;2024-02-21T03:35:02;101291.41;;;6.37;100.00
73063;BME280;61230;46.328;19.972;2024-02-21T03:37:30;101290.19;;;6.43;100.00
73063;BME280;61230;46.328;19.972;2024-02-21T03:39:58;101285.16;;;6.40;100.00
73063;BME280;61230;46.328;19.972;2024-02-21T03:42:25;101283.75;;;6.48;100.00
73063;BME280;61230;46.328;19.972;2024-02-21T03:44:53;101242.59;;;6.23;100.00
73063;BME280;61230;46.328;19.972;2024-02-21T03:47:21;101251.53;;;6.33;100.00
73063;BME280;61230;46.328;19.972;2024-02-21T03:49:49;101288.81;;;6.51;100.00
73063;BME280;61230;46.328;19.972;2024-02-21T03:52:18;101291.78;;;6.45;100.00
73063;BME280;61230;46.328;19.972;2024-02-21T03:54:45;101251.72;;;6.16;100.00
73063;BME280;61230;46.328;19.972;2024-02-21T03:57:13;101290.31;;;6.41;100.00
73063;BME280;61230;46.328;19.972;2024-02-21T03:59:41;101293.75;;;6.42;100.00
73063;BME280;61230;46.328;19.972;2024-02-21T04:02:11;101292.81;;;6.43;100.00
73063;BME280;61230;46.328;19.972;2024-02-21T04:04:43;101283.22;;;6.43;100.00
73063;BME280;61230;46.328;19.972;2024-02-21T04:07:10;101265.28;;;6.37;100.00
73063;BME280;61230;46.328;19.972;2024-02-21T04:09:38;101279.19;;;6.52;100.00
73063;BME280;61230;46.328;19.972;2024-02-21T04:12:08;101280.78;;;6.40;100.00
73063;BME280;61230;46.328;19.972;2024-02-21T04:14:36;101264.91;;;6.29;100.00
73063;BME280;61230;46.328;19.972;2024-02-21T04:17:04;101282.91;;;6.33;100.00
73063;BME280;61230;46.328;19.972;2024-02-21T04:19:33;101280.22;;;6.35;100.00
73063;BME280;61230;46.328;19.972;2024-02-21T04:22:01;101285.34;;;6.36;100.00
73063;BME280;61230;46.328;19.972;2024-02-21T04:24:29;101283.75;;;6.34;100.00
73063;BME280;61230;46.328;19.972;2024-02-21T04:26:56;101213.19;;;5.92;100.00
73063;BME280;61230;46.328;19.972;2024-02-21T04:29:24;101279.94;;;6.40;100.00
73063;BME280;61230;46.328;19.972;2024-02-21T04:31:52;101282.47;;;6.41;100.00
73063;BME280;61230;46.328;19.972;2024-02-21T04:34:20;101280.47;;;6.45;100.00
73063;BME280;61230;46.328;19.972;2024-02-21T04:36:47;101282.66;;;6.38;100.00
73063;BME280;61230;46.328;19.972;2024-02-21T04:39:15;101276.66;;;6.36;100.00
73063;BME280;61230;46.328;19.972;2024-02-21T04:41:43;101240.06;;;6.08;100.00
73063;BME280;61230;46.328;19.972;2024-02-21T04:44:11;101283.28;;;6.27;100.00
73063;BME280;61230;46.328;19.972;2024-02-21T04:46:42;101281.31;;;6.31;100.00
73063;BME280;61230;46.328;19.972;2024-02-21T04:49:10;101282.16;;;6.31;100.00
73063;BME280;61230;46.328;19.972;2024-02-21T04:51:40;101284.78;;;6.31;100.00
73063;BME280;61230;46.328;19.972;2024-02-21T04:54:07;101277.78;;;6.32;100.00
73063;BME280;61230;46.328;19.972;2024-02-21T04:56:35;101276.94;;;6.31;100.00
73063;BME280;61230;46.328;19.972;2024-02-21T04:59:03;101285.72;;;6.30;100.00
73063;BME280;61230;46.328;19.972;2024-02-21T05:01:31;101278.81;;;6.29;100.00
73063;BME280;61230;46.328;19.972;2024-02-21T05:03:59;101277.22;;;6.27;100.00
73063;BME280;61230;46.328;19.972;2024-02-21T05:06:27;101283.66;;;6.21;100.00
73063;BME280;61230;46.328;19.972;2024-02-21T05:08:54;101271.59;;;6.19;100.00
73063;BME280;61230;46.328;19.972;2024-02-21T05:11:23;101238.44;;;5.91;100.00
73063;BME280;61230;46.328;19.972;2024-02-21T05:13:51;101271.41;;;6.22;100.00
73063;BME280;61230;46.328;19.972;2024-02-21T05:16:18;101287.59;;;6.28;100.00
73063;BME280;61230;46.328;19.972;2024-02-21T05:18:47;101247.81;;;6.09;100.00
73063;BME280;61230;46.328;19.972;2024-02-21T05:21:15;101256.50;;;6.10;100.00
73063;BME280;61230;46.328;19.972;2024-02-21T05:23:43;101272.19;;;6.24;100.00
73063;BME280;61230;46.328;19.972;2024-02-21T05:26:11;101275.72;;;6.23;100.00
73063;BME280;61230;46.328;19.972;2024-02-21T05:28:38;101281.78;;;6.23;100.00
73063;BME280;61230;46.328;19.972;2024-02-21T05:31:06;101281.69;;;6.25;100.00
73063;BME280;61230;46.328;19.972;2024-02-21T05:33:34;101236.41;;;5.96;100.00
73063;BME280;61230;46.328;19.972;2024-02-21T05:36:01;101219.94;;;5.80;100.00
73063;BME280;61230;46.328;19.972;2024-02-21T05:38:30;101281.88;;;6.22;100.00
73063;BME280;61230;46.328;19.972;2024-02-21T05:40:57;101282.72;;;6.22;100.00
73063;BME280;61230;46.328;19.972;2024-02-21T05:43:25;101294.47;;;6.15;100.00
73063;BME280;61230;46.328;19.972;2024-02-21T05:45:53;101295.97;;;6.19;100.00
73063;BME280;61230;46.328;19.972;2024-02-21T05:48:22;101300.09;;;6.23;100.00
73063;BME280;61230;46.328;19.972;2024-02-21T05:50:50;101213.59;;;5.70;100.00
73063;BME280;61230;46.328;19.972;2024-02-21T05:53:17;101308.66;;;6.25;100.00
73063;BME280;61230;46.328;19.972;2024-02-21T05:55:45;101258.62;;;6.03;100.00
73063;BME280;61230;46.328;19.972;2024-02-21T05:58:13;101300.94;;;6.24;100.00
73063;BME280;61230;46.328;19.972;2024-02-21T06:00:41;101304.66;;;6.20;100.00
73063;BME280;61230;46.328;19.972;2024-02-21T06:03:09;101302.22;;;6.17;100.00
73063;BME280;61230;46.328;19.972;2024-02-21T06:05:37;101296.31;;;6.13;100.00
73063;BME280;61230;46.328;19.972;2024-02-21T06:08:06;101297.09;;;6.15;100.00
73063;BME280;61230;46.328;19.972;2024-02-21T06:10:34;101299.41;;;6.20;100.00
73063;BME280;61230;46.328;19.972;2024-02-21T06:13:01;101296.91;;;6.18;100.00
73063;BME280;61230;46.328;19.972;2024-02-21T06:15:29;101300.44;;;6.17;100.00
73063;BME280;61230;46.328;19.972;2024-02-21T06:17:57;101255.06;;;5.90;100.00
73063;BME280;61230;46.328;19.972;2024-02-21T06:20:25;101303.41;;;6.11;100.00
73063;BME280;61230;46.328;19.972;2024-02-21T06:22:53;101300.81;;;6.11;100.00
73063;BME280;61230;46.328;19.972;2024-02-21T06:25:21;101299.13;;;6.10;100.00
73063;BME280;61230;46.328;19.972;2024-02-21T06:27:49;101289.97;;;6.03;100.00
73063;BME280;61230;46.328;19.972;2024-02-21T06:30:16;101317.16;;;6.15;100.00
73063;BME280;61230;46.328;19.972;2024-02-21T06:32:44;101319.31;;;6.22;100.00
73063;BME280;61230;46.328;19.972;2024-02-21T06:35:12;101322.88;;;6.21;100.00
73063;BME280;61230;46.328;19.972;2024-02-21T06:37:39;101326.22;;;6.23;100.00
73063;BME280;61230;46.328;19.972;2024-02-21T06:40:07;101331.97;;;6.14;100.00
73063;BME280;61230;46.328;19.972;2024-02-21T06:42:36;101330.31;;;6.27;100.00
73063;BME280;61230;46.328;19.972;2024-02-21T06:45:03;101332.37;;;6.36;100.00
73063;BME280;61230;46.328;19.972;2024-02-21T06:47:31;101335.66;;;6.40;100.00
73063;BME280;61230;46.328;19.972;2024-02-21T06:49:59;101332.31;;;6.52;100.00
73063;BME280;61230;46.328;19.972;2024-02-21T06:52:27;101338.41;;;6.53;100.00
73063;BME280;61230;46.328;19.972;2024-02-21T06:54:55;101350.16;;;6.60;100.00
73063;BME280;61230;46.328;19.972;2024-02-21T06:57:23;101342.69;;;6.68;100.00
73063;BME280;61230;46.328;19.972;2024-02-21T06:59:51;101345.78;;;6.60;100.00
73063;BME280;61230;46.328;19.972;2024-02-21T07:02:19;101348.66;;;6.56;100.00
73063;BME280;61230;46.328;19.972;2024-02-21T07:04:47;101354.81;;;6.41;100.00
73063;BME280;61230;46.328;19.972;2024-02-21T07:07:14;101353.59;;;6.46;100.00
73063;BME280;61230;46.328;19.972;2024-02-21T07:09:43;101366.38;;;6.51;100.00
73063;BME280;61230;46.328;19.972;2024-02-21T07:12:10;101349.13;;;6.62;100.00
73063;BME280;61230;46.328;19.972;2024-02-21T07:14:38;101367.44;;;6.62;100.00
73063;BME280;61230;46.328;19.972;2024-02-21T07:17:06;101363.59;;;6.68;100.00
73063;BME280;61230;46.328;19.972;2024-02-21T07:19:34;101359.22;;;6.68;100.00
73063;BME280;61230;46.328;19.972;2024-02-21T07:22:03;101356.72;;;6.81;100.00
73063;BME280;61230;46.328;19.972;2024-02-21T07:24:31;101312.88;;;6.56;100.00
73063;BME280;61230;46.328;19.972;2024-02-21T07:26:59;101350.53;;;6.96;100.00
73063;BME280;61230;46.328;19.972;2024-02-21T07:29:32;101358.16;;;7.13;100.00
73063;BME280;61230;46.328;19.972;2024-02-21T07:32:00;101318.00;;;7.00;100.00
73063;BME280;61230;46.328;19.972;2024-02-21T07:34:27;101355.06;;;7.35;100.00
73063;BME280;61230;46.328;19.972;2024-02-21T07:36:56;101359.25;;;7.37;100.00
73063;BME280;61230;46.328;19.972;2024-02-21T07:39:23;101354.91;;;7.50;100.00
73063;BME280;61230;46.328;19.972;2024-02-21T07:41:51;101360.81;;;7.67;100.00
73063;BME280;61230;46.328;19.972;2024-02-21T07:44:19;101360.75;;;7.68;100.00
73063;BME280;61230;46.328;19.972;2024-02-21T07:46:46;101360.69;;;7.82;100.00
73063;BME280;61230;46.328;19.972;2024-02-21T07:49:14;101364.69;;;7.88;100.00
73063;BME280;61230;46.328;19.972;2024-02-21T07:51:42;101364.28;;;7.94;100.00
73063;BME280;61230;46.328;19.972;2024-02-21T07:54:10;101359.06;;;8.06;100.00
73063;BME280;61230;46.328;19.972;2024-02-21T07:56:43;101355.13;;;8.26;100.00
73063;BME280;61230;46.328;19.972;2024-02-21T07:59:10;101359.97;;;8.32;100.00
73063;BME280;61230;46.328;19.972;2024-02-21T08:01:40;101348.44;;;8.35;100.00
73063;BME280;61230;46.328;19.972;2024-02-21T08:04:08;101350.25;;;8.34;100.00
73063;BME280;61230;46.328;19.972;2024-02-21T08:06:36;101346.06;;;8.57;100.00
73063;BME280;61230;46.328;19.972;2024-02-21T08:09:04;101347.28;;;8.51;100.00
73063;BME280;61230;46.328;19.972;2024-02-21T08:11:32;101346.88;;;8.57;100.00
73063;BME280;61230;46.328;19.972;2024-02-21T08:14:01;101335.66;;;8.55;100.00
73063;BME280;61230;46.328;19.972;2024-02-21T08:16:28;101343.31;;;8.58;100.00
73063;BME280;61230;46.328;19.972;2024-02-21T08:18:56;101351.72;;;8.76;100.00
73063;BME280;61230;46.328;19.972;2024-02-21T08:21:25;101346.84;;;8.83;100.00
73063;BME280;61230;46.328;19.972;2024-02-21T08:23:53;101344.03;;;8.98;100.00
73063;BME280;61230;46.328;19.972;2024-02-21T08:26:22;101333.72;;;9.08;100.00
73063;BME280;61230;46.328;19.972;2024-02-21T08:28:49;101347.06;;;9.05;100.00
73063;BME280;61230;46.328;19.972;2024-02-21T08:31:19;101341.13;;;9.14;100.00
73063;BME280;61230;46.328;19.972;2024-02-21T08:33:47;101329.47;;;9.18;100.00
73063;BME280;61230;46.328;19.972;2024-02-21T08:36:18;101328.97;;;9.13;100.00
73063;BME280;61230;46.328;19.972;2024-02-21T08:38:47;101332.47;;;9.01;100.00
73063;BME280;61230;46.328;19.972;2024-02-21T08:41:14;101331.38;;;9.16;100.00
73063;BME280;61230;46.328;19.972;2024-02-21T08:43:42;101329.81;;;9.37;100.00
73063;BME280;61230;46.328;19.972;2024-02-21T08:46:10;101326.75;;;9.43;100.00
73063;BME280;61230;46.328;19.972;2024-02-21T08:48:38;101335.84;;;9.39;100.00
73063;BME280;61230;46.328;19.972;2024-02-21T08:51:07;101329.78;;;9.50;99.45
73063;BME280;61230;46.328;19.972;2024-02-21T08:53:34;101318.88;;;9.43;96.51
73063;BME280;61230;46.328;19.972;2024-02-21T08:56:02;101331.56;;;9.49;96.19
73063;BME280;61230;46.328;19.972;2024-02-21T08:58:30;101281.06;;;9.22;95.42
73063;BME280;61230;46.328;19.972;2024-02-21T09:00:58;101325.44;;;9.61;96.85
73063;BME280;61230;46.328;19.972;2024-02-21T09:03:26;101327.41;;;9.70;97.25
73063;BME280;61230;46.328;19.972;2024-02-21T09:05:56;101330.12;;;9.69;97.97
73063;BME280;61230;46.328;19.972;2024-02-21T09:08:23;101327.28;;;9.72;94.95
73063;BME280;61230;46.328;19.972;2024-02-21T09:10:52;101317.47;;;9.74;95.15
73063;BME280;61230;46.328;19.972;2024-02-21T09:13:20;101328.19;;;9.95;94.44
73063;BME280;61230;46.328;19.972;2024-02-21T09:15:48;101338.94;;;9.92;94.65
73063;BME280;61230;46.328;19.972;2024-02-21T09:18:16;101327.28;;;10.07;92.38
73063;BME280;61230;46.328;19.972;2024-02-21T09:20:47;101327.16;;;10.08;93.96
73063;BME280;61230;46.328;19.972;2024-02-21T09:23:15;101334.16;;;10.20;92.12
73063;BME280;61230;46.328;19.972;2024-02-21T09:25:44;101332.25;;;10.33;91.13
73063;BME280;61230;46.328;19.972;2024-02-21T09:28:12;101305.47;;;10.17;89.56
73063;BME280;61230;46.328;19.972;2024-02-21T09:30:40;101344.97;;;10.51;89.87
73063;BME280;61230;46.328;19.972;2024-02-21T09:33:08;101292.47;;;10.27;89.19
73063;BME280;61230;46.328;19.972;2024-02-21T09:35:37;101325.63;;;10.74;88.73
73063;BME280;61230;46.328;19.972;2024-02-21T09:38:05;101333.50;;;10.85;86.12
73063;BME280;61230;46.328;19.972;2024-02-21T09:40:33;101334.00;;;11.12;84.50
73063;BME280;61230;46.328;19.972;2024-02-21T09:43:05;101335.66;;;11.02;84.46
73063;BME280;61230;46.328;19.972;2024-02-21T09:45:34;101323.78;;;11.19;83.87
73063;BME280;61230;46.328;19.972;2024-02-21T09:48:21;101330.78;;;10.98;85.00
73063;BME280;61230;46.328;19.972;2024-02-21T09:50:53;101329.13;;;11.39;81.82
73063;BME280;61230;46.328;19.972;2024-02-21T09:53:24;101337.88;;;11.40;74.89
73063;BME280;61230;46.328;19.972;2024-02-21T09:55:53;101336.34;;;11.37;74.79
73063;BME280;61230;46.328;19.972;2024-02-21T09:58:21;101326.38;;;11.41;74.58
73063;BME280;61230;46.328;19.972;2024-02-21T10:00:49;101335.25;;;11.40;72.97
73063;BME280;61230;46.328;19.972;2024-02-21T10:03:17;101299.41;;;11.48;71.26
73063;BME280;61230;46.328;19.972;2024-02-21T10:05:48;101330.34;;;11.24;70.65
73063;BME280;61230;46.328;19.972;2024-02-21T10:08:20;101319.62;;;11.59;68.51
73063;BME280;61230;46.328;19.972;2024-02-21T10:10:47;101316.22;;;11.68;66.57
73063;BME280;61230;46.328;19.972;2024-02-21T10:13:27;101323.69;;;11.63;66.82
73063;BME280;61230;46.328;19.972;2024-02-21T10:16:06;101327.97;;;11.75;68.05
73063;BME280;61230;46.328;19.972;2024-02-21T10:18:34;101318.59;;;11.82;66.51
73063;BME280;61230;46.328;19.972;2024-02-21T10:21:06;101320.09;;;12.17;67.77
73063;BME280;61230;46.328;19.972;2024-02-21T10:23:45;101283.25;;;11.42;67.01
73063;BME280;61230;46.328;19.972;2024-02-21T10:26:14;101316.03;;;11.60;69.19
73063;BME280;61230;46.328;19.972;2024-02-21T10:28:42;101312.06;;;11.12;68.21
73063;BME280;61230;46.328;19.972;2024-02-21T10:31:22;101309.41;;;11.77;67.13
73063;BME280;61230;46.328;19.972;2024-02-21T10:33:59;101303.47;;;11.84;64.08
73063;BME280;61230;46.328;19.972;2024-02-21T10:36:27;101255.25;;;11.62;64.61
73063;BME280;61230;46.328;19.972;2024-02-21T10:38:55;101252.38;;;11.01;67.17
73063;BME280;61230;46.328;19.972;2024-02-21T10:41:24;101277.66;;;11.24;67.70
73063;BME280;61230;46.328;19.972;2024-02-21T10:43:53;101246.59;;;11.07;63.78
73063;BME280;61230;46.328;19.972;2024-02-21T10:46:24;101280.16;;;11.37;64.54
73063;BME280;61230;46.328;19.972;2024-02-21T10:49:08;101243.47;;;11.45;62.79
73063;BME280;61230;46.328;19.972;2024-02-21T10:51:43;101278.31;;;11.06;63.93
73063;BME280;61230;46.328;19.972;2024-02-21T10:54:22;101276.59;;;11.27;64.16
73063;BME280;61230;46.328;19.972;2024-02-21T10:56:53;101272.59;;;11.43;62.23
73063;BME280;61230;46.328;19.972;2024-02-21T10:59:24;101280.28;;;11.67;62.40
73063;BME280;61230;46.328;19.972;2024-02-21T11:01:54;101267.59;;;11.40;61.82
73063;BME280;61230;46.328;19.972;2024-02-21T11:04:26;101228.91;;;11.30;62.63
73063;BME280;61230;46.328;19.972;2024-02-21T11:06:56;101218.94;;;11.65;61.98
73063;BME280;61230;46.328;19.972;2024-02-21T11:09:31;101195.53;;;11.51;62.25
73063;BME280;61230;46.328;19.972;2024-02-21T11:12:04;101253.78;;;11.80;60.66
73063;BME280;61230;46.328;19.972;2024-02-21T11:14:33;101255.41;;;11.60;61.50
73063;BME280;61230;46.328;19.972;2024-02-21T11:17:20;101253.87;;;11.78;62.29
73063;BME280;61230;46.328;19.972;2024-02-21T11:19:55;101254.75;;;11.68;61.91
73063;BME280;61230;46.328;19.972;2024-02-21T11:22:23;101250.69;;;11.75;60.57
73063;BME280;61230;46.328;19.972;2024-02-21T11:24:53;101248.25;;;11.51;61.01
73063;BME280;61230;46.328;19.972;2024-02-21T11:27:23;101253.19;;;11.76;60.55
73063;BME280;61230;46.328;19.972;2024-02-21T11:29:58;101244.97;;;11.90;58.45
73063;BME280;61230;46.328;19.972;2024-02-21T11:32:27;101227.78;;;11.96;58.38
73063;BME280;61230;46.328;19.972;2024-02-21T11:35:01;101226.87;;;12.06;59.67
73063;BME280;61230;46.328;19.972;2024-02-21T11:37:32;101204.44;;;11.91;59.61
73063;BME280;61230;46.328;19.972;2024-02-21T11:40:01;101231.16;;;11.77;59.33
73063;BME280;61230;46.328;19.972;2024-02-21T11:42:31;101233.03;;;11.75;58.54
73063;BME280;61230;46.328;19.972;2024-02-21T11:45:00;101229.06;;;11.81;57.77
73063;BME280;61230;46.328;19.972;2024-02-21T11:47:29;101221.38;;;11.89;58.27
73063;BME280;61230;46.328;19.972;2024-02-21T11:49:57;101206.16;;;11.81;58.13
73063;BME280;61230;46.328;19.972;2024-02-21T11:52:25;101214.38;;;11.67;58.51
73063;BME280;61230;46.328;19.972;2024-02-21T11:54:55;101200.94;;;12.12;57.52
73063;BME280;61230;46.328;19.972;2024-02-21T11:57:32;101150.78;;;12.42;57.56
73063;BME280;61230;46.328;19.972;2024-02-21T12:00:11;101198.94;;;12.64;55.91
73063;BME280;61230;46.328;19.972;2024-02-21T12:02:40;101192.91;;;12.53;54.21
73063;BME280;61230;46.328;19.972;2024-02-21T12:05:08;101161.19;;;12.03;55.60
73063;BME280;61230;46.328;19.972;2024-02-21T12:07:39;101199.34;;;12.30;55.73
73063;BME280;61230;46.328;19.972;2024-02-21T12:10:09;101189.91;;;12.67;54.86
73063;BME280;61230;46.328;19.972;2024-02-21T12:12:38;101195.69;;;12.21;55.80
73063;BME280;61230;46.328;19.972;2024-02-21T12:15:07;101201.12;;;12.20;55.53
73063;BME280;61230;46.328;19.972;2024-02-21T12:17:37;101188.97;;;12.07;54.99
73063;BME280;61230;46.328;19.972;2024-02-21T12:20:06;101185.47;;;11.77;56.66
73063;BME280;61230;46.328;19.972;2024-02-21T12:22:41;101173.94;;;11.78;58.46
73063;BME280;61230;46.328;19.972;2024-02-21T12:25:17;101175.25;;;12.14;58.05
73063;BME280;61230;46.328;19.972;2024-02-21T12:27:49;101170.62;;;12.36;57.62
73063;BME280;61230;46.328;19.972;2024-02-21T12:30:16;101166.44;;;12.03;55.34
73063;BME280;61230;46.328;19.972;2024-02-21T12:32:45;101184.56;;;11.87;57.75
73063;BME280;61230;46.328;19.972;2024-02-21T12:35:13;101180.25;;;11.86;57.69
73063;BME280;61230;46.328;19.972;2024-02-21T12:37:41;101170.50;;;11.77;57.46
73063;BME280;61230;46.328;19.972;2024-02-21T12:40:09;101179.44;;;11.86;56.60
73063;BME280;61230;46.328;19.972;2024-02-21T12:42:42;101128.50;;;11.85;56.47
73063;BME280;61230;46.328;19.972;2024-02-21T12:45:10;101170.75;;;12.35;57.91
73063;BME280;61230;46.328;19.972;2024-02-21T12:47:40;101163.50;;;12.67;57.81
73063;BME280;61230;46.328;19.972;2024-02-21T12:50:09;101166.81;;;12.20;57.71
73063;BME280;61230;46.328;19.972;2024-02-21T12:52:36;101162.41;;;12.30;58.15